sensor_id;sensor_type;location;lat;lon;timestamp;P1;durP1;ratioP1;P2;durP2;ratioP2
38859;SDS011;24609;48.316;16.174;2023-03-08T00:01:08;12.52;;;6.70;;
38859;SDS011;24609;48.316;16.174;2023-03-08T00:03:39;16.83;;;6.72;;
38859;SDS011;24609;48.316;16.174;2023-03-08T00:06:06;14.50;;;8.13;;
38859;SDS011;24609;48.316;16.174;2023-03-08T00:08:32;14.45;;;7.03;;
38859;SDS011;24609;48.316;16.174;2023-03-08T00:10:58;11.73;;;6.55;;
38859;SDS011;24609;48.316;16.174;2023-03-08T00:13:24;15.20;;;7.97;;
38859;SDS011;24609;48.316;16.174;2023-03-08T00:15:50;11.27;;;7.10;;
38859;SDS011;24609;48.316;16.174;2023-03-08T00:18:17;15.02;;;7.38;;
38859;SDS011;24609;48.316;16.174;2023-03-08T00:20:43;15.15;;;6.43;;
38859;SDS011;24609;48.316;16.174;2023-03-08T00:23:08;15.27;;;7.63;;
38859;SDS011;24609;48.316;16.174;2023-03-08T00:25:34;15.77;;;7.65;;
38859;SDS011;24609;48.316;16.174;2023-03-08T00:28:00;11.57;;;7.28;;
38859;SDS011;24609;48.316;16.174;2023-03-08T00:30:25;17.30;;;6.85;;
38859;SDS011;24609;48.316;16.174;2023-03-08T00:32:51;8.18;;;4.88;;
38859;SDS011;24609;48.316;16.174;2023-03-08T00:35:16;15.50;;;7.60;;
38859;SDS011;24609;48.316;16.174;2023-03-08T00:37:44;12.00;;;7.68;;
38859;SDS011;24609;48.316;16.174;2023-03-08T00:40:10;16.33;;;6.60;;
38859;SDS011;24609;48.316;16.174;2023-03-08T00:42:36;23.55;;;7.25;;
38859;SDS011;24609;48.316;16.174;2023-03-08T00:45:02;13.35;;;7.28;;
38859;SDS011;24609;48.316;16.174;2023-03-08T00:47:28;12.32;;;6.55;;
38859;SDS011;24609;48.316;16.174;2023-03-08T00:49:54;14.18;;;6.13;;
38859;SDS011;24609;48.316;16.174;2023-03-08T00:52:19;13.30;;;6.40;;
38859;SDS011;24609;48.316;16.174;2023-03-08T00:54:45;14.13;;;5.95;;
38859;SDS011;24609;48.316;16.174;2023-03-08T00:57:11;12.23;;;5.53;;
38859;SDS011;24609;48.316;16.174;2023-03-08T00:59:36;11.82;;;6.28;;
38859;SDS011;24609;48.316;16.174;2023-03-08T01:02:02;10.23;;;5.60;;
38859;SDS011;24609;48.316;16.174;2023-03-08T01:04:28;9.93;;;4.88;;
38859;SDS011;24609;48.316;16.174;2023-03-08T01:06:53;9.55;;;4.75;;
38859;SDS011;24609;48.316;16.174;2023-03-08T01:09:19;7.55;;;4.53;;
38859;SDS011;24609;48.316;16.174;2023-03-08T01:11:45;5.65;;;3.78;;
38859;SDS011;24609;48.316;16.174;2023-03-08T01:14:10;8.95;;;3.88;;
38859;SDS011;24609;48.316;16.174;2023-03-08T01:16:36;7.80;;;3.45;;
38859;SDS011;24609;48.316;16.174;2023-03-08T01:19:02;9.32;;;4.38;;
38859;SDS011;24609;48.316;16.174;2023-03-08T01:21:29;5.78;;;3.53;;
38859;SDS011;24609;48.316;16.174;2023-03-08T01:23:55;6.60;;;3.35;;
38859;SDS011;24609;48.316;16.174;2023-03-08T01:26:23;8.80;;;4.07;;
38859;SDS011;24609;48.316;16.174;2023-03-08T01:28:50;9.90;;;4.00;;
38859;SDS011;24609;48.316;16.174;2023-03-08T01:31:17;9.98;;;4.50;;
38859;SDS011;24609;48.316;16.174;2023-03-08T01:33:44;9.53;;;4.30;;
38859;SDS011;24609;48.316;16.174;2023-03-08T01:36:11;9.02;;;4.53;;
38859;SDS011;24609;48.316;16.174;2023-03-08T01:38:41;9.70;;;4.20;;
38859;SDS011;24609;48.316;16.174;2023-03-08T01:41:12;9.15;;;4.22;;
38859;SDS011;24609;48.316;16.174;2023-03-08T01:43:43;5.30;;;3.35;;
38859;SDS011;24609;48.316;16.174;2023-03-08T01:46:22;6.60;;;3.22;;
38859;SDS011;24609;48.316;16.174;2023-03-08T01:54:05;5.53;;;3.28;;
38859;SDS011;24609;48.316;16.174;2023-03-08T01:56:36;6.90;;;3.78;;
38859;SDS011;24609;48.316;16.174;2023-03-08T01:59:03;6.75;;;3.30;;
38859;SDS011;24609;48.316;16.174;2023-03-08T02:01:29;13.07;;;4.53;;
38859;SDS011;24609;48.316;16.174;2023-03-08T02:03:55;4.90;;;2.88;;
38859;SDS011;24609;48.316;16.174;2023-03-08T02:06:21;11.63;;;4.05;;
38859;SDS011;24609;48.316;16.174;2023-03-08T02:08:46;6.30;;;3.55;;
38859;SDS011;24609;48.316;16.174;2023-03-08T02:11:12;5.80;;;3.33;;
38859;SDS011;24609;48.316;16.174;2023-03-08T02:13:40;8.07;;;4.03;;
38859;SDS011;24609;48.316;16.174;2023-03-08T02:16:07;5.97;;;3.88;;
38859;SDS011;24609;48.316;16.174;2023-03-08T02:18:47;7.95;;;4.30;;
38859;SDS011;24609;48.316;16.174;2023-03-08T02:21:14;6.90;;;2.85;;
38859;SDS011;24609;48.316;16.174;2023-03-08T02:23:39;6.00;;;3.67;;
38859;SDS011;24609;48.316;16.174;2023-03-08T02:26:05;6.13;;;3.05;;
38859;SDS011;24609;48.316;16.174;2023-03-08T02:28:31;7.72;;;4.57;;
38859;SDS011;24609;48.316;16.174;2023-03-08T02:30:57;9.85;;;3.75;;
38859;SDS011;24609;48.316;16.174;2023-03-08T02:33:23;6.30;;;3.70;;
38859;SDS011;24609;48.316;16.174;2023-03-08T02:35:49;7.55;;;3.80;;
38859;SDS011;24609;48.316;16.174;2023-03-08T02:38:15;7.20;;;3.78;;
38859;SDS011;24609;48.316;16.174;2023-03-08T02:40:42;10.70;;;4.97;;
38859;SDS011;24609;48.316;16.174;2023-03-08T02:43:08;13.40;;;4.32;;
38859;SDS011;24609;48.316;16.174;2023-03-08T02:45:34;9.88;;;4.22;;
38859;SDS011;24609;48.316;16.174;2023-03-08T02:48:01;9.50;;;4.72;;
38859;SDS011;24609;48.316;16.174;2023-03-08T02:50:28;10.75;;;5.30;;
38859;SDS011;24609;48.316;16.174;2023-03-08T02:52:55;10.73;;;5.63;;
38859;SDS011;24609;48.316;16.174;2023-03-08T02:55:21;8.23;;;4.28;;
38859;SDS011;24609;48.316;16.174;2023-03-08T02:57:47;6.28;;;4.25;;
38859;SDS011;24609;48.316;16.174;2023-03-08T03:00:12;10.30;;;4.75;;
38859;SDS011;24609;48.316;16.174;2023-03-08T03:02:38;11.80;;;5.43;;
38859;SDS011;24609;48.316;16.174;2023-03-08T03:05:05;9.85;;;4.10;;
38859;SDS011;24609;48.316;16.174;2023-03-08T03:07:34;7.40;;;3.58;;
38859;SDS011;24609;48.316;16.174;2023-03-08T03:10:01;6.30;;;3.83;;
38859;SDS011;24609;48.316;16.174;2023-03-08T03:12:30;9.80;;;4.38;;
38859;SDS011;24609;48.316;16.174;2023-03-08T03:14:56;14.15;;;4.63;;
38859;SDS011;24609;48.316;16.174;2023-03-08T03:17:22;9.40;;;4.25;;
38859;SDS011;24609;48.316;16.174;2023-03-08T03:19:47;8.05;;;4.22;;
38859;SDS011;24609;48.316;16.174;2023-03-08T03:22:13;8.00;;;3.97;;
38859;SDS011;24609;48.316;16.174;2023-03-08T03:24:39;7.07;;;4.47;;
38859;SDS011;24609;48.316;16.174;2023-03-08T03:27:05;8.95;;;4.50;;
38859;SDS011;24609;48.316;16.174;2023-03-08T03:29:30;11.30;;;4.70;;
38859;SDS011;24609;48.316;16.174;2023-03-08T03:31:56;6.50;;;4.25;;
38859;SDS011;24609;48.316;16.174;2023-03-08T03:34:22;12.10;;;5.10;;
38859;SDS011;24609;48.316;16.174;2023-03-08T03:36:47;11.02;;;4.45;;
38859;SDS011;24609;48.316;16.174;2023-03-08T03:39:13;12.20;;;5.80;;
38859;SDS011;24609;48.316;16.174;2023-03-08T03:41:39;8.35;;;3.78;;
38859;SDS011;24609;48.316;16.174;2023-03-08T03:44:04;13.45;;;5.90;;
38859;SDS011;24609;48.316;16.174;2023-03-08T03:46:30;11.60;;;4.97;;
38859;SDS011;24609;48.316;16.174;2023-03-08T03:48:56;12.38;;;5.50;;
38859;SDS011;24609;48.316;16.174;2023-03-08T03:51:21;12.15;;;4.68;;
38859;SDS011;24609;48.316;16.174;2023-03-08T03:53:47;7.75;;;4.53;;
38859;SDS011;24609;48.316;16.174;2023-03-08T03:58:41;12.23;;;5.07;;
38859;SDS011;24609;48.316;16.174;2023-03-08T04:01:11;12.18;;;5.05;;
38859;SDS011;24609;48.316;16.174;2023-03-08T04:03:47;6.78;;;4.07;;
38859;SDS011;24609;48.316;16.174;2023-03-08T04:06:17;8.38;;;4.72;;
38859;SDS011;24609;48.316;16.174;2023-03-08T04:08:45;6.63;;;4.57;;
38859;SDS011;24609;48.316;16.174;2023-03-08T04:11:12;9.15;;;4.78;;
38859;SDS011;24609;48.316;16.174;2023-03-08T04:13:39;11.90;;;5.10;;
38859;SDS011;24609;48.316;16.174;2023-03-08T04:18:38;11.57;;;5.18;;
38859;SDS011;24609;48.316;16.174;2023-03-08T04:21:04;10.40;;;4.72;;
38859;SDS011;24609;48.316;16.174;2023-03-08T04:23:30;9.10;;;4.15;;
38859;SDS011;24609;48.316;16.174;2023-03-08T04:25:56;13.43;;;4.75;;
38859;SDS011;24609;48.316;16.174;2023-03-08T04:28:22;14.95;;;5.60;;
38859;SDS011;24609;48.316;16.174;2023-03-08T04:30:48;8.65;;;4.93;;
38859;SDS011;24609;48.316;16.174;2023-03-08T04:33:13;10.57;;;5.10;;
38859;SDS011;24609;48.316;16.174;2023-03-08T04:35:39;8.15;;;4.38;;
38859;SDS011;24609;48.316;16.174;2023-03-08T04:38:04;10.65;;;5.20;;
38859;SDS011;24609;48.316;16.174;2023-03-08T04:40:31;6.95;;;4.20;;
38859;SDS011;24609;48.316;16.174;2023-03-08T04:42:56;6.85;;;4.28;;
38859;SDS011;24609;48.316;16.174;2023-03-08T04:45:22;10.95;;;4.47;;
38859;SDS011;24609;48.316;16.174;2023-03-08T04:47:48;13.43;;;5.93;;
38859;SDS011;24609;48.316;16.174;2023-03-08T04:50:14;11.32;;;5.88;;
38859;SDS011;24609;48.316;16.174;2023-03-08T04:52:40;8.70;;;5.32;;
38859;SDS011;24609;48.316;16.174;2023-03-08T04:55:05;11.88;;;5.28;;
38859;SDS011;24609;48.316;16.174;2023-03-08T04:57:31;7.45;;;4.40;;
38859;SDS011;24609;48.316;16.174;2023-03-08T04:59:59;10.50;;;4.78;;
38859;SDS011;24609;48.316;16.174;2023-03-08T05:02:24;8.70;;;4.82;;
38859;SDS011;24609;48.316;16.174;2023-03-08T05:04:50;13.88;;;6.18;;
38859;SDS011;24609;48.316;16.174;2023-03-08T05:07:16;7.82;;;3.97;;
38859;SDS011;24609;48.316;16.174;2023-03-08T05:09:41;8.52;;;4.85;;
38859;SDS011;24609;48.316;16.174;2023-03-08T05:12:07;11.40;;;5.40;;
38859;SDS011;24609;48.316;16.174;2023-03-08T05:14:33;13.10;;;6.03;;
38859;SDS011;24609;48.316;16.174;2023-03-08T05:16:58;7.35;;;4.20;;
38859;SDS011;24609;48.316;16.174;2023-03-08T05:19:24;11.05;;;4.72;;
38859;SDS011;24609;48.316;16.174;2023-03-08T05:21:50;7.80;;;4.30;;
38859;SDS011;24609;48.316;16.174;2023-03-08T05:24:15;9.13;;;5.75;;
38859;SDS011;24609;48.316;16.174;2023-03-08T05:26:41;6.82;;;5.03;;
38859;SDS011;24609;48.316;16.174;2023-03-08T05:29:07;12.20;;;4.57;;
38859;SDS011;24609;48.316;16.174;2023-03-08T05:31:33;9.75;;;4.60;;
38859;SDS011;24609;48.316;16.174;2023-03-08T05:34:00;6.03;;;3.80;;
38859;SDS011;24609;48.316;16.174;2023-03-08T05:36:26;11.50;;;4.15;;
38859;SDS011;24609;48.316;16.174;2023-03-08T05:38:52;7.68;;;4.22;;
38859;SDS011;24609;48.316;16.174;2023-03-08T05:41:19;11.75;;;4.07;;
38859;SDS011;24609;48.316;16.174;2023-03-08T05:43:45;5.68;;;3.97;;
38859;SDS011;24609;48.316;16.174;2023-03-08T05:46:12;9.77;;;4.53;;
38859;SDS011;24609;48.316;16.174;2023-03-08T05:48:40;15.35;;;5.32;;
38859;SDS011;24609;48.316;16.174;2023-03-08T05:51:06;12.90;;;5.38;;
38859;SDS011;24609;48.316;16.174;2023-03-08T05:53:34;11.00;;;5.00;;
38859;SDS011;24609;48.316;16.174;2023-03-08T05:56:07;9.30;;;4.15;;
38859;SDS011;24609;48.316;16.174;2023-03-08T05:58:36;14.07;;;5.90;;
38859;SDS011;24609;48.316;16.174;2023-03-08T06:01:12;8.13;;;3.78;;
38859;SDS011;24609;48.316;16.174;2023-03-08T06:03:45;8.38;;;4.93;;
38859;SDS011;24609;48.316;16.174;2023-03-08T06:06:12;9.85;;;4.57;;
38859;SDS011;24609;48.316;16.174;2023-03-08T06:08:38;13.20;;;4.63;;
38859;SDS011;24609;48.316;16.174;2023-03-08T06:11:05;12.77;;;4.88;;
38859;SDS011;24609;48.316;16.174;2023-03-08T06:13:30;12.23;;;5.07;;
38859;SDS011;24609;48.316;16.174;2023-03-08T06:15:57;9.13;;;4.82;;
38859;SDS011;24609;48.316;16.174;2023-03-08T06:18:24;8.82;;;4.88;;
38859;SDS011;24609;48.316;16.174;2023-03-08T06:20:54;11.48;;;5.72;;
38859;SDS011;24609;48.316;16.174;2023-03-08T06:23:25;10.90;;;4.90;;
38859;SDS011;24609;48.316;16.174;2023-03-08T06:25:52;9.80;;;5.40;;
38859;SDS011;24609;48.316;16.174;2023-03-08T06:28:18;8.70;;;5.07;;
38859;SDS011;24609;48.316;16.174;2023-03-08T06:30:45;12.25;;;5.50;;
38859;SDS011;24609;48.316;16.174;2023-03-08T06:33:13;9.68;;;4.57;;
38859;SDS011;24609;48.316;16.174;2023-03-08T06:35:40;15.98;;;6.07;;
38859;SDS011;24609;48.316;16.174;2023-03-08T06:38:05;11.57;;;5.65;;
38859;SDS011;24609;48.316;16.174;2023-03-08T06:40:31;12.15;;;5.32;;
38859;SDS011;24609;48.316;16.174;2023-03-08T06:42:57;15.65;;;6.28;;
38859;SDS011;24609;48.316;16.174;2023-03-08T06:45:23;14.65;;;7.32;;
38859;SDS011;24609;48.316;16.174;2023-03-08T06:47:49;12.18;;;5.38;;
38859;SDS011;24609;48.316;16.174;2023-03-08T06:50:15;14.25;;;6.53;;
38859;SDS011;24609;48.316;16.174;2023-03-08T06:52:41;11.32;;;5.40;;
38859;SDS011;24609;48.316;16.174;2023-03-08T06:55:06;14.05;;;6.05;;
38859;SDS011;24609;48.316;16.174;2023-03-08T06:57:33;12.25;;;6.75;;
38859;SDS011;24609;48.316;16.174;2023-03-08T06:59:58;16.13;;;6.10;;
38859;SDS011;24609;48.316;16.174;2023-03-08T07:02:24;9.27;;;6.07;;
38859;SDS011;24609;48.316;16.174;2023-03-08T07:04:50;7.93;;;5.00;;
38859;SDS011;24609;48.316;16.174;2023-03-08T07:07:15;14.25;;;6.60;;
38859;SDS011;24609;48.316;16.174;2023-03-08T07:09:41;17.02;;;6.32;;
38859;SDS011;24609;48.316;16.174;2023-03-08T07:12:07;11.77;;;6.00;;
38859;SDS011;24609;48.316;16.174;2023-03-08T07:14:32;10.88;;;5.38;;
38859;SDS011;24609;48.316;16.174;2023-03-08T07:16:58;14.38;;;5.97;;
38859;SDS011;24609;48.316;16.174;2023-03-08T07:19:24;16.52;;;6.45;;
38859;SDS011;24609;48.316;16.174;2023-03-08T07:21:49;10.73;;;5.90;;
38859;SDS011;24609;48.316;16.174;2023-03-08T07:24:15;10.02;;;5.80;;
38859;SDS011;24609;48.316;16.174;2023-03-08T07:26:40;11.82;;;4.72;;
38859;SDS011;24609;48.316;16.174;2023-03-08T07:29:06;11.07;;;5.50;;
38859;SDS011;24609;48.316;16.174;2023-03-08T07:31:32;10.63;;;5.53;;
38859;SDS011;24609;48.316;16.174;2023-03-08T07:34:00;15.07;;;6.63;;
38859;SDS011;24609;48.316;16.174;2023-03-08T07:36:27;8.52;;;5.22;;
38859;SDS011;24609;48.316;16.174;2023-03-08T07:38:53;11.27;;;5.18;;
38859;SDS011;24609;48.316;16.174;2023-03-08T07:41:18;8.07;;;4.85;;
38859;SDS011;24609;48.316;16.174;2023-03-08T07:43:44;8.07;;;4.72;;
38859;SDS011;24609;48.316;16.174;2023-03-08T07:46:09;10.88;;;5.10;;
38859;SDS011;24609;48.316;16.174;2023-03-08T07:48:35;10.20;;;5.22;;
38859;SDS011;24609;48.316;16.174;2023-03-08T07:51:05;9.70;;;5.13;;
38859;SDS011;24609;48.316;16.174;2023-03-08T07:53:33;9.82;;;4.90;;
38859;SDS011;24609;48.316;16.174;2023-03-08T07:56:00;11.70;;;4.90;;
38859;SDS011;24609;48.316;16.174;2023-03-08T07:58:26;14.35;;;5.03;;
38859;SDS011;24609;48.316;16.174;2023-03-08T08:00:53;8.55;;;4.38;;
38859;SDS011;24609;48.316;16.174;2023-03-08T08:03:19;8.30;;;3.75;;
38859;SDS011;24609;48.316;16.174;2023-03-08T08:05:45;8.40;;;4.28;;
38859;SDS011;24609;48.316;16.174;2023-03-08T08:08:11;7.75;;;4.05;;
38859;SDS011;24609;48.316;16.174;2023-03-08T08:10:40;11.80;;;4.82;;
38859;SDS011;24609;48.316;16.174;2023-03-08T08:15:33;9.27;;;4.32;;
38859;SDS011;24609;48.316;16.174;2023-03-08T08:17:59;8.55;;;3.80;;
38859;SDS011;24609;48.316;16.174;2023-03-08T08:20:25;8.30;;;3.88;;
38859;SDS011;24609;48.316;16.174;2023-03-08T08:22:51;7.15;;;3.83;;
38859;SDS011;24609;48.316;16.174;2023-03-08T08:25:18;8.38;;;3.78;;
38859;SDS011;24609;48.316;16.174;2023-03-08T08:27:44;6.95;;;3.58;;
38859;SDS011;24609;48.316;16.174;2023-03-08T08:30:14;9.18;;;3.90;;
38859;SDS011;24609;48.316;16.174;2023-03-08T08:32:39;9.48;;;4.05;;
38859;SDS011;24609;48.316;16.174;2023-03-08T08:35:05;7.05;;;3.55;;
38859;SDS011;24609;48.316;16.174;2023-03-08T08:37:31;14.68;;;4.00;;
38859;SDS011;24609;48.316;16.174;2023-03-08T08:39:58;6.72;;;3.42;;
38859;SDS011;24609;48.316;16.174;2023-03-08T08:42:24;11.80;;;3.83;;
38859;SDS011;24609;48.316;16.174;2023-03-08T08:44:53;10.55;;;4.40;;
38859;SDS011;24609;48.316;16.174;2023-03-08T08:47:19;9.10;;;4.35;;
38859;SDS011;24609;48.316;16.174;2023-03-08T08:49:45;10.32;;;4.53;;
38859;SDS011;24609;48.316;16.174;2023-03-08T08:52:10;6.60;;;3.60;;
38859;SDS011;24609;48.316;16.174;2023-03-08T08:54:36;7.45;;;3.80;;
38859;SDS011;24609;48.316;16.174;2023-03-08T08:57:04;8.32;;;3.85;;
38859;SDS011;24609;48.316;16.174;2023-03-08T08:59:30;7.88;;;4.38;;
38859;SDS011;24609;48.316;16.174;2023-03-08T09:01:57;9.25;;;3.83;;
38859;SDS011;24609;48.316;16.174;2023-03-08T09:04:22;10.38;;;3.95;;
38859;SDS011;24609;48.316;16.174;2023-03-08T09:06:48;6.63;;;3.75;;
38859;SDS011;24609;48.316;16.174;2023-03-08T09:09:14;6.05;;;3.85;;
38859;SDS011;24609;48.316;16.174;2023-03-08T09:11:41;6.88;;;3.88;;
38859;SDS011;24609;48.316;16.174;2023-03-08T09:14:07;8.48;;;3.97;;
38859;SDS011;24609;48.316;16.174;2023-03-08T09:16:33;7.00;;;3.92;;
38859;SDS011;24609;48.316;16.174;2023-03-08T09:18:59;9.07;;;3.90;;
38859;SDS011;24609;48.316;16.174;2023-03-08T09:21:27;13.57;;;4.47;;
38859;SDS011;24609;48.316;16.174;2023-03-08T09:23:54;5.90;;;3.70;;
38859;SDS011;24609;48.316;16.174;2023-03-08T09:26:22;7.03;;;4.28;;
38859;SDS011;24609;48.316;16.174;2023-03-08T09:28:48;9.45;;;4.50;;
38859;SDS011;24609;48.316;16.174;2023-03-08T09:31:14;9.38;;;3.75;;
38859;SDS011;24609;48.316;16.174;2023-03-08T09:33:41;7.25;;;3.50;;
38859;SDS011;24609;48.316;16.174;2023-03-08T09:36:09;6.32;;;3.58;;
38859;SDS011;24609;48.316;16.174;2023-03-08T09:38:36;7.15;;;3.85;;
38859;SDS011;24609;48.316;16.174;2023-03-08T09:43:31;5.50;;;3.55;;
38859;SDS011;24609;48.316;16.174;2023-03-08T09:46:27;9.70;;;4.18;;
38859;SDS011;24609;48.316;16.174;2023-03-08T09:48:57;8.07;;;3.90;;
38859;SDS011;24609;48.316;16.174;2023-03-08T09:51:27;7.88;;;4.35;;
38859;SDS011;24609;48.316;16.174;2023-03-08T09:54:00;8.80;;;3.83;;
38859;SDS011;24609;48.316;16.174;2023-03-08T09:56:31;6.57;;;4.38;;
38859;SDS011;24609;48.316;16.174;2023-03-08T09:59:05;7.38;;;3.70;;
38859;SDS011;24609;48.316;16.174;2023-03-08T10:04:34;9.65;;;3.78;;
38859;SDS011;24609;48.316;16.174;2023-03-08T10:16:08;7.43;;;4.35;;
38859;SDS011;24609;48.316;16.174;2023-03-08T10:21:28;7.30;;;3.83;;
38859;SDS011;24609;48.316;16.174;2023-03-08T10:26:51;8.10;;;3.38;;
38859;SDS011;24609;48.316;16.174;2023-03-08T10:29:18;6.30;;;4.10;;
38859;SDS011;24609;48.316;16.174;2023-03-08T10:31:45;7.82;;;3.70;;
38859;SDS011;24609;48.316;16.174;2023-03-08T10:34:16;6.43;;;4.07;;
38859;SDS011;24609;48.316;16.174;2023-03-08T10:36:48;5.43;;;2.65;;
38859;SDS011;24609;48.316;16.174;2023-03-08T10:39:16;8.45;;;3.58;;
38859;SDS011;24609;48.316;16.174;2023-03-08T10:41:43;6.40;;;2.90;;
38859;SDS011;24609;48.316;16.174;2023-03-08T10:44:27;5.40;;;3.20;;
38859;SDS011;24609;48.316;16.174;2023-03-08T10:46:55;7.88;;;3.92;;
38859;SDS011;24609;48.316;16.174;2023-03-08T10:49:22;6.28;;;3.13;;
38859;SDS011;24609;48.316;16.174;2023-03-08T10:51:59;9.45;;;3.78;;
38859;SDS011;24609;48.316;16.174;2023-03-08T10:54:26;6.78;;;3.67;;
38859;SDS011;24609;48.316;16.174;2023-03-08T10:56:54;9.05;;;3.75;;
38859;SDS011;24609;48.316;16.174;2023-03-08T10:59:21;9.25;;;4.30;;
38859;SDS011;24609;48.316;16.174;2023-03-08T11:01:55;5.93;;;2.97;;
38859;SDS011;24609;48.316;16.174;2023-03-08T11:04:24;9.05;;;4.10;;
38859;SDS011;24609;48.316;16.174;2023-03-08T11:06:51;9.25;;;3.97;;
38859;SDS011;24609;48.316;16.174;2023-03-08T11:11:52;13.32;;;3.45;;
38859;SDS011;24609;48.316;16.174;2023-03-08T11:14:21;9.40;;;4.80;;
38859;SDS011;24609;48.316;16.174;2023-03-08T11:16:49;8.15;;;4.80;;
38859;SDS011;24609;48.316;16.174;2023-03-08T11:37:52;11.13;;;5.35;;
38859;SDS011;24609;48.316;16.174;2023-03-08T11:45:59;15.00;;;6.15;;
38859;SDS011;24609;48.316;16.174;2023-03-08T11:48:37;10.63;;;5.75;;
38859;SDS011;24609;48.316;16.174;2023-03-08T11:59:23;9.95;;;5.90;;
38859;SDS011;24609;48.316;16.174;2023-03-08T12:01:59;25.73;;;6.88;;
38859;SDS011;24609;48.316;16.174;2023-03-08T12:10:20;14.80;;;6.05;;
38859;SDS011;24609;48.316;16.174;2023-03-08T12:12:56;13.30;;;5.82;;
38859;SDS011;24609;48.316;16.174;2023-03-08T12:21:26;16.95;;;6.80;;
38859;SDS011;24609;48.316;16.174;2023-03-08T12:26:35;18.77;;;7.57;;
38859;SDS011;24609;48.316;16.174;2023-03-08T12:29:14;12.98;;;5.65;;
38859;SDS011;24609;48.316;16.174;2023-03-08T12:31:45;8.30;;;5.53;;
38859;SDS011;24609;48.316;16.174;2023-03-08T12:34:21;12.52;;;6.10;;
38859;SDS011;24609;48.316;16.174;2023-03-08T12:36:53;12.18;;;6.30;;
38859;SDS011;24609;48.316;16.174;2023-03-08T12:42:24;12.70;;;6.22;;
38859;SDS011;24609;48.316;16.174;2023-03-08T12:44:52;14.48;;;6.40;;
38859;SDS011;24609;48.316;16.174;2023-03-08T12:47:29;15.60;;;6.82;;
38859;SDS011;24609;48.316;16.174;2023-03-08T12:49:54;12.13;;;6.20;;
38859;SDS011;24609;48.316;16.174;2023-03-08T12:52:25;12.18;;;6.30;;
38859;SDS011;24609;48.316;16.174;2023-03-08T12:55:00;10.77;;;5.15;;
38859;SDS011;24609;48.316;16.174;2023-03-08T12:57:33;14.98;;;6.80;;
38859;SDS011;24609;48.316;16.174;2023-03-08T13:00:22;16.40;;;6.57;;
38859;SDS011;24609;48.316;16.174;2023-03-08T13:16:31;16.08;;;6.55;;
38859;SDS011;24609;48.316;16.174;2023-03-08T13:19:21;12.98;;;6.70;;
38859;SDS011;24609;48.316;16.174;2023-03-08T13:21:56;14.68;;;8.00;;
38859;SDS011;24609;48.316;16.174;2023-03-08T13:24:46;9.90;;;6.55;;
38859;SDS011;24609;48.316;16.174;2023-03-08T13:29:49;11.98;;;6.68;;
38859;SDS011;24609;48.316;16.174;2023-03-08T13:32:17;15.43;;;8.10;;
38859;SDS011;24609;48.316;16.174;2023-03-08T13:34:44;10.93;;;6.57;;
38859;SDS011;24609;48.316;16.174;2023-03-08T13:37:23;16.58;;;5.90;;
38859;SDS011;24609;48.316;16.174;2023-03-08T13:39:54;13.13;;;7.35;;
38859;SDS011;24609;48.316;16.174;2023-03-08T13:42:21;14.90;;;6.85;;
38859;SDS011;24609;48.316;16.174;2023-03-08T13:44:51;17.88;;;7.22;;
38859;SDS011;24609;48.316;16.174;2023-03-08T13:47:20;18.45;;;7.97;;
38859;SDS011;24609;48.316;16.174;2023-03-08T13:49:46;17.70;;;8.95;;
38859;SDS011;24609;48.316;16.174;2023-03-08T13:52:21;20.65;;;8.65;;
38859;SDS011;24609;48.316;16.174;2023-03-08T13:54:52;13.07;;;7.45;;
38859;SDS011;24609;48.316;16.174;2023-03-08T13:57:22;14.00;;;7.72;;
38859;SDS011;24609;48.316;16.174;2023-03-08T13:59:52;14.20;;;6.93;;
38859;SDS011;24609;48.316;16.174;2023-03-08T14:04:47;13.75;;;7.60;;
38859;SDS011;24609;48.316;16.174;2023-03-08T14:07:18;12.57;;;6.78;;
38859;SDS011;24609;48.316;16.174;2023-03-08T14:09:46;16.95;;;7.15;;
38859;SDS011;24609;48.316;16.174;2023-03-08T14:12:14;16.73;;;7.40;;
38859;SDS011;24609;48.316;16.174;2023-03-08T14:14:42;16.17;;;7.72;;
38859;SDS011;24609;48.316;16.174;2023-03-08T14:17:21;17.13;;;8.30;;
38859;SDS011;24609;48.316;16.174;2023-03-08T14:19:53;16.73;;;7.80;;
38859;SDS011;24609;48.316;16.174;2023-03-08T14:22:21;18.88;;;7.65;;
38859;SDS011;24609;48.316;16.174;2023-03-08T14:24:53;17.77;;;7.57;;
38859;SDS011;24609;48.316;16.174;2023-03-08T14:30:00;25.15;;;8.25;;
38859;SDS011;24609;48.316;16.174;2023-03-08T14:32:38;17.52;;;7.90;;
38859;SDS011;24609;48.316;16.174;2023-03-08T14:35:28;12.93;;;7.40;;
38859;SDS011;24609;48.316;16.174;2023-03-08T14:37:57;11.00;;;6.93;;
38859;SDS011;24609;48.316;16.174;2023-03-08T14:42:56;17.17;;;7.63;;
38859;SDS011;24609;48.316;16.174;2023-03-08T14:45:34;15.23;;;6.78;;
38859;SDS011;24609;48.316;16.174;2023-03-08T14:48:23;15.68;;;8.75;;
38859;SDS011;24609;48.316;16.174;2023-03-08T14:51:04;19.02;;;8.15;;
38859;SDS011;24609;48.316;16.174;2023-03-08T14:53:58;15.73;;;7.43;;
38859;SDS011;24609;48.316;16.174;2023-03-08T14:56:29;17.73;;;7.85;;
38859;SDS011;24609;48.316;16.174;2023-03-08T14:59:00;12.90;;;6.88;;
38859;SDS011;24609;48.316;16.174;2023-03-08T15:01:34;17.35;;;7.53;;
38859;SDS011;24609;48.316;16.174;2023-03-08T15:04:01;16.33;;;7.53;;
38859;SDS011;24609;48.316;16.174;2023-03-08T15:06:31;13.00;;;6.95;;
38859;SDS011;24609;48.316;16.174;2023-03-08T15:09:00;12.85;;;6.05;;
38859;SDS011;24609;48.316;16.174;2023-03-08T15:11:27;12.77;;;6.32;;
38859;SDS011;24609;48.316;16.174;2023-03-08T15:13:56;10.98;;;6.97;;
38859;SDS011;24609;48.316;16.174;2023-03-08T15:16:22;11.93;;;6.18;;
38859;SDS011;24609;48.316;16.174;2023-03-08T15:18:48;11.43;;;6.90;;
38859;SDS011;24609;48.316;16.174;2023-03-08T15:21:15;14.77;;;7.32;;
38859;SDS011;24609;48.316;16.174;2023-03-08T15:23:46;15.10;;;7.57;;
38859;SDS011;24609;48.316;16.174;2023-03-08T15:26:13;11.77;;;6.63;;
38859;SDS011;24609;48.316;16.174;2023-03-08T15:28:48;16.90;;;6.90;;
38859;SDS011;24609;48.316;16.174;2023-03-08T15:31:13;13.60;;;7.30;;
38859;SDS011;24609;48.316;16.174;2023-03-08T15:33:39;17.45;;;7.57;;
38859;SDS011;24609;48.316;16.174;2023-03-08T15:36:05;15.40;;;7.53;;
38859;SDS011;24609;48.316;16.174;2023-03-08T15:38:32;13.40;;;7.20;;
38859;SDS011;24609;48.316;16.174;2023-03-08T15:40:58;12.20;;;6.00;;
38859;SDS011;24609;48.316;16.174;2023-03-08T15:43:24;15.90;;;6.63;;
38859;SDS011;24609;48.316;16.174;2023-03-08T15:45:50;11.55;;;6.32;;
38859;SDS011;24609;48.316;16.174;2023-03-08T15:48:16;15.30;;;6.53;;
38859;SDS011;24609;48.316;16.174;2023-03-08T15:50:43;19.55;;;7.13;;
38859;SDS011;24609;48.316;16.174;2023-03-08T15:53:09;14.55;;;6.97;;
38859;SDS011;24609;48.316;16.174;2023-03-08T15:55:36;13.43;;;7.05;;
38859;SDS011;24609;48.316;16.174;2023-03-08T15:58:03;12.40;;;6.75;;
38859;SDS011;24609;48.316;16.174;2023-03-08T16:00:29;12.82;;;6.57;;
38859;SDS011;24609;48.316;16.174;2023-03-08T16:02:55;11.43;;;6.15;;
38859;SDS011;24609;48.316;16.174;2023-03-08T16:05:21;13.18;;;6.57;;
38859;SDS011;24609;48.316;16.174;2023-03-08T16:07:56;17.73;;;7.05;;
38859;SDS011;24609;48.316;16.174;2023-03-08T16:10:26;12.07;;;6.30;;
38859;SDS011;24609;48.316;16.174;2023-03-08T16:12:54;16.23;;;6.30;;
38859;SDS011;24609;48.316;16.174;2023-03-08T16:15:20;15.38;;;7.50;;
38859;SDS011;24609;48.316;16.174;2023-03-08T16:17:46;20.33;;;6.50;;
38859;SDS011;24609;48.316;16.174;2023-03-08T16:20:13;16.75;;;6.97;;
38859;SDS011;24609;48.316;16.174;2023-03-08T16:22:39;13.35;;;6.35;;